Time;durP1;ratioP1;P1;durP2;ratioP2;P2;SDS_P1;SDS_P2;PMS_P1;PMS_P2;Temp;Humidity;BMP_temperature;BMP_pressure;BME280_temperature;BME280_humidity;BME280_pressure;Samples;Min_cycle;Max_cycle;Signal;HPM_P1;HPM_P2
2024/01/03 00:02:00;;;;;;;62.13;29.88;;;;;;;;;;4995622;28;20034;-49
2024/01/03 00:04:27;;;;;;;;;;;;;;;;;;4996721;28;20097;-50
2024/01/03 00:06:53;;;;;;;58.17;28.33;;;;;;;;;;5012068;28;19913;-50
2024/01/03 00:09:19;;;;;;;59.03;29.07;;;;;;;;;;5012803;28;20416;-49
2024/01/03 00:11:45;;;;;;;56.35;27.25;;;;;;;;;;5000511;28;20105;-50
2024/01/03 00:14:31;;;;;;;53.23;26.03;;;;;;;;;;5011300;28;20029;-50
2024/01/03 00:17:01;;;;;;;53.28;25.90;;;;;;;;;;4996203;28;20571;-49
2024/01/03 00:19:28;;;;;;;48.88;25.60;;;;;;;;;;4991651;28;20042;-49
2024/01/03 00:21:54;;;;;;;48.83;25.95;;;;;;;;;;4975469;28;20026;-50
2024/01/03 00:24:20;;;;;;;48.50;26.83;;;;;;;;;;4991214;28;20121;-50
2024/01/03 00:26:47;;;;;;;50.03;26.38;;;;;;;;;;5010014;28;20022;-50
2024/01/03 00:29:22;;;;;;;60.42;26.55;;;;;;;;;;4993698;28;20030;-50
2024/01/03 00:31:49;;;;;;;49.78;25.58;;;;;;;;;;4978160;28;20105;-50
2024/01/03 00:34:21;;;;;;;45.45;25.23;;;;;;;;;;4993546;28;20129;-50
2024/01/03 00:36:48;;;;;;;42.65;24.38;;;;;;;;;;4994008;28;20434;-49
2024/01/03 00:39:14;;;;;;;51.65;26.60;;;;;;;;;;4992379;28;20026;-50
2024/01/03 00:41:41;;;;;;;;;;;;;;;;;;4972528;28;20388;-50
2024/01/03 00:44:07;;;;;;;49.25;25.27;;;;;;;;;;5012553;28;19921;-50
2024/01/03 00:46:33;;;;;;;51.90;27.38;;;;;;;;;;4987762;28;20029;-50
2024/01/03 00:49:00;;;;;;;51.15;27.67;;;;;;;;;;5012257;28;20108;-50
2024/01/03 00:51:26;;;;;;;58.17;30.55;;;;;;;;;;5007002;28;20041;-50
2024/01/03 00:53:52;;;;;;;58.17;30.90;;;;;;;;;;5012477;28;20443;-50
2024/01/03 00:56:19;;;;;;;54.08;27.77;;;;;;;;;;4994839;28;20029;-50
2024/01/03 00:58:45;;;;;;;59.25;26.67;;;;;;;;;;5012097;28;20405;-50
2024/01/03 01:01:12;;;;;;;53.57;28.97;;;;;;;;;;4987649;28;20096;-50
2024/01/03 01:03:38;;;;;;;51.83;28.05;;;;;;;;;;4983763;28;20268;-50
2024/01/03 01:06:05;;;;;;;49.15;28.10;;;;;;;;;;4975450;28;20041;-50
2024/01/03 01:08:31;;;;;;;;;;;;;;;;;;4994093;28;20026;-50
2024/01/03 01:10:57;;;;;;;56.00;27.98;;;;;;;;;;4998338;28;19994;-50
2024/01/03 01:13:23;;;;;;;53.83;27.45;;;;;;;;;;5006676;28;20030;-51
2024/01/03 01:15:50;;;;;;;53.25;27.98;;;;;;;;;;5005651;28;20139;-49
2024/01/03 01:18:16;;;;;;;46.53;26.88;;;;;;;;;;5012042;28;20026;-50
2024/01/03 01:20:42;;;;;;;44.10;25.95;;;;;;;;;;4993107;28;20070;-50
2024/01/03 01:23:08;;;;;;;50.95;25.00;;;;;;;;;;4975251;28;20091;-50
2024/01/03 01:25:34;;;;;;;52.20;27.65;;;;;;;;;;4992576;28;20088;-50
2024/01/03 01:28:01;;;;;;;49.58;25.02;;;;;;;;;;4992319;28;20466;-50
2024/01/03 01:30:27;;;;;;;50.47;26.92;;;;;;;;;;4992655;28;20046;-50
2024/01/03 01:32:53;;;;;;;55.80;28.83;;;;;;;;;;4991363;28;20077;-50
2024/01/03 01:35:19;;;;;;;53.60;30.67;;;;;;;;;;4975056;28;20041;-50
2024/01/03 01:37:45;;;;;;;57.55;28.17;;;;;;;;;;4992440;28;20543;-51
2024/01/03 01:40:12;;;;;;;50.87;29.47;;;;;;;;;;4992067;28;20034;-50
2024/01/03 01:42:42;;;;;;;55.15;30.70;;;;;;;;;;4974893;28;20265;-50
2024/01/03 01:45:09;;;;;;;56.35;27.80;;;;;;;;;;5007602;28;20037;-50
2024/01/03 01:47:35;;;;;;;;;;;;;;;;;;5012276;28;20026;-50
2024/01/03 01:50:02;;;;;;;56.95;28.42;;;;;;;;;;5011335;28;19916;-51
2024/01/03 01:52:28;;;;;;;53.67;27.95;;;;;;;;;;5005143;28;20022;-50
2024/01/03 01:54:54;;;;;;;49.97;28.35;;;;;;;;;;5004486;28;20054;-50
2024/01/03 01:57:21;;;;;;;45.65;27.15;;;;;;;;;;4994359;28;20084;-50
2024/01/03 01:59:48;;;;;;;45.97;26.10;;;;;;;;;;4985693;28;20537;-50
2024/01/03 02:02:14;;;;;;;46.90;26.50;;;;;;;;;;4973859;28;20072;-51
2024/01/03 02:04:40;;;;;;;48.40;28.50;;;;;;;;;;5011450;28;20114;-49
2024/01/03 02:07:08;;;;;;;56.03;28.08;;;;;;;;;;4993550;28;20026;-50
2024/01/03 02:09:34;;;;;;;48.55;28.27;;;;;;;;;;4975473;28;20041;-50
2024/01/03 02:12:00;;;;;;;51.03;27.45;;;;;;;;;;4971382;28;20530;-50
2024/01/03 02:14:26;;;;;;;43.80;25.77;;;;;;;;;;5005021;28;20030;-51
2024/01/03 02:16:53;;;;;;;47.53;27.52;;;;;;;;;;4987815;28;20121;-50
2024/01/03 02:19:19;;;;;;;49.23;28.73;;;;;;;;;;5010773;28;20038;-50
2024/01/03 02:21:45;;;;;;;51.92;27.55;;;;;;;;;;4993654;28;20034;-49
2024/01/03 02:24:11;;;;;;;46.85;27.63;;;;;;;;;;4968590;28;20032;-50
2024/01/03 02:26:37;;;;;;;46.85;28.52;;;;;;;;;;4976629;28;20022;-49
2024/01/03 02:29:04;;;;;;;50.67;28.25;;;;;;;;;;4991622;28;20074;-50
2024/01/03 02:31:30;;;;;;;55.25;28.05;;;;;;;;;;5003096;28;20034;-50
2024/01/03 02:33:57;;;;;;;44.50;27.95;;;;;;;;;;5004245;28;20035;-51
2024/01/03 02:36:23;;;;;;;50.93;29.67;;;;;;;;;;4991880;28;20113;-51
2024/01/03 02:38:51;;;;;;;48.83;28.27;;;;;;;;;;5003690;28;20400;-51
2024/01/03 02:41:17;;;;;;;44.10;28.17;;;;;;;;;;4994545;28;20061;-49
2024/01/03 02:43:43;;;;;;;44.65;28.10;;;;;;;;;;4992832;28;20030;-50
2024/01/03 02:46:10;;;;;;;41.30;26.73;;;;;;;;;;4994674;28;20026;-50
2024/01/03 02:48:41;;;;;;;54.58;27.98;;;;;;;;;;4991644;28;20018;-50
2024/01/03 02:51:07;;;;;;;49.25;29.15;;;;;;;;;;5004073;28;20469;-49
2024/01/03 02:53:34;;;;;;;40.33;25.25;;;;;;;;;;4991918;28;20458;-50
2024/01/03 02:56:06;;;;;;;47.57;28.87;;;;;;;;;;5001874;28;20116;-51
2024/01/03 02:58:32;;;;;;;43.55;27.02;;;;;;;;;;4993443;28;20496;-50
2024/01/03 03:00:58;;;;;;;42.72;25.60;;;;;;;;;;5004011;28;20436;-50
2024/01/03 03:03:25;;;;;;;47.40;29.15;;;;;;;;;;4991701;28;20034;-50
2024/01/03 03:05:51;;;;;;;39.65;24.55;;;;;;;;;;5000169;28;20030;-51
2024/01/03 03:08:17;;;;;;;38.57;24.93;;;;;;;;;;4999334;28;20066;-50
2024/01/03 03:10:43;;;;;;;38.78;24.35;;;;;;;;;;4976017;28;20076;-50
2024/01/03 03:13:09;;;;;;;41.53;26.65;;;;;;;;;;5013005;28;20058;-49
2024/01/03 03:15:35;;;;;;;41.05;24.20;;;;;;;;;;5004950;28;20026;-50
2024/01/03 03:18:02;;;;;;;36.47;23.40;;;;;;;;;;4994726;28;20097;-50
2024/01/03 03:20:28;;;;;;;36.47;24.58;;;;;;;;;;4997097;28;20556;-50
2024/01/03 03:22:54;;;;;;;34.47;22.80;;;;;;;;;;5005742;28;20030;-49
2024/01/03 03:25:20;;;;;;;31.05;20.33;;;;;;;;;;4991793;28;20030;-49
2024/01/03 03:27:46;;;;;;;32.90;20.13;;;;;;;;;;4986355;28;20027;-51
2024/01/03 03:30:13;;;;;;;35.67;21.60;;;;;;;;;;4996166;28;20023;-50
2024/01/03 03:32:39;;;;;;;34.53;20.90;;;;;;;;;;5014353;28;20033;-51
2024/01/03 03:35:05;;;;;;;27.15;18.83;;;;;;;;;;5008122;28;20046;-50
2024/01/03 03:37:31;;;;;;;29.70;20.35;;;;;;;;;;4996629;28;20034;-53
2024/01/03 03:39:57;;;;;;;29.00;20.05;;;;;;;;;;4994583;28;20441;-51
2024/01/03 03:42:24;;;;;;;28.13;18.02;;;;;;;;;;4962054;28;20154;-50
2024/01/03 03:44:50;;;;;;;29.05;20.70;;;;;;;;;;4995541;28;20365;-49
2024/01/03 03:47:16;;;;;;;28.50;18.70;;;;;;;;;;5010503;28;20555;-50
2024/01/03 03:49:42;;;;;;;31.38;19.35;;;;;;;;;;5000899;28;20022;-50
2024/01/03 03:52:09;;;;;;;30.73;19.23;;;;;;;;;;5008995;28;20045;-50
2024/01/03 03:54:35;;;;;;;25.55;18.17;;;;;;;;;;5012301;28;20510;-50
2024/01/03 03:57:02;;;;;;;27.27;19.13;;;;;;;;;;4994599;28;20566;-50
2024/01/03 03:59:28;;;;;;;32.17;19.38;;;;;;;;;;4995952;28;20026;-50
2024/01/03 04:01:54;;;;;;;30.33;20.10;;;;;;;;;;4994567;28;20033;-50
2024/01/03 04:04:21;;;;;;;27.38;18.08;;;;;;;;;;4991597;28;20121;-50
2024/01/03 04:06:47;;;;;;;30.02;20.48;;;;;;;;;;4997363;28;20460;-50
2024/01/03 04:09:19;;;;;;;31.20;18.92;;;;;;;;;;4979734;28;20570;-50
2024/01/03 04:11:45;;;;;;;25.92;17.73;;;;;;;;;;4983701;28;20045;-51
2024/01/03 04:14:11;;;;;;;29.70;19.80;;;;;;;;;;4995064;28;20049;-50
2024/01/03 04:16:38;;;;;;;27.70;19.27;;;;;;;;;;5009160;28;20029;-50
2024/01/03 04:19:04;;;;;;;26.77;18.38;;;;;;;;;;4959477;28;20352;-50
2024/01/03 04:21:31;;;;;;;29.60;21.10;;;;;;;;;;5002161;28;20025;-50
2024/01/03 04:23:57;;;;;;;30.75;18.98;;;;;;;;;;5013322;28;20391;-50
2024/01/03 04:26:24;;;;;;;27.15;18.50;;;;;;;;;;5013232;28;20042;-50
2024/01/03 04:28:50;;;;;;;30.83;18.57;;;;;;;;;;5010850;28;20021;-51
2024/01/03 04:31:16;;;;;;;27.13;18.27;;;;;;;;;;5011527;28;20321;-49
2024/01/03 04:33:42;;;;;;;29.92;18.85;;;;;;;;;;4995641;28;20022;-50
2024/01/03 04:36:13;;;;;;;27.97;18.60;;;;;;;;;;5006189;28;20030;-50
2024/01/03 04:38:39;;;;;;;27.50;18.05;;;;;;;;;;4994294;28;20035;-49
2024/01/03 04:41:06;;;;;;;28.45;18.40;;;;;;;;;;4993413;28;20022;-50
2024/01/03 04:43:32;;;;;;;26.98;18.52;;;;;;;;;;5006072;28;20542;-50
2024/01/03 04:45:58;;;;;;;26.60;17.80;;;;;;;;;;5005554;28;20038;-50
2024/01/03 04:48:24;;;;;;;29.33;17.52;;;;;;;;;;4967991;28;20024;-51
2024/01/03 04:50:50;;;;;;;28.13;19.67;;;;;;;;;;4993424;28;20014;-48
2024/01/03 04:53:16;;;;;;;27.58;18.23;;;;;;;;;;4986815;28;20104;-50
2024/01/03 04:55:43;;;;;;;29.63;18.98;;;;;;;;;;4995066;28;20037;-49
2024/01/03 04:58:09;;;;;;;31.87;18.17;;;;;;;;;;4994679;28;20063;-50
2024/01/03 05:00:36;;;;;;;27.30;18.77;;;;;;;;;;4995037;28;20090;-49
2024/01/03 05:03:03;;;;;;;28.02;18.27;;;;;;;;;;4978788;28;20034;-50
2024/01/03 05:05:29;;;;;;;29.70;18.90;;;;;;;;;;5012426;28;20336;-50
2024/01/03 05:07:56;;;;;;;28.65;19.13;;;;;;;;;;4994736;28;20022;-50
2024/01/03 05:10:22;;;;;;;28.42;19.20;;;;;;;;;;4995028;28;20029;-50
2024/01/03 05:12:48;;;;;;;29.65;19.38;;;;;;;;;;5012565;28;20029;-51
2024/01/03 05:15:14;;;;;;;29.75;18.67;;;;;;;;;;5012583;28;20025;-53
2024/01/03 05:17:41;;;;;;;27.10;19.20;;;;;;;;;;5012460;28;20041;-50
2024/01/03 05:20:08;;;;;;;31.42;19.55;;;;;;;;;;5012028;28;20497;-50
2024/01/03 05:22:35;;;;;;;28.00;18.52;;;;;;;;;;5012448;28;20030;-50
2024/01/03 05:25:01;;;;;;;28.50;18.10;;;;;;;;;;5012392;28;20026;-49
2024/01/03 05:27:27;;;;;;;27.63;18.52;;;;;;;;;;5012297;28;20256;-50
2024/01/03 05:29:53;;;;;;;27.17;19.10;;;;;;;;;;5012065;28;20022;-50
2024/01/03 05:32:19;;;;;;;32.33;19.95;;;;;;;;;;5012348;28;20506;-50
2024/01/03 05:34:45;;;;;;;31.38;21.10;;;;;;;;;;5011777;28;20113;-51
2024/01/03 05:37:12;;;;;;;29.13;20.20;;;;;;;;;;5012284;28;20523;-52
2024/01/03 05:39:38;;;;;;;25.90;19.02;;;;;;;;;;5011881;28;20088;-50
2024/01/03 05:42:04;;;;;;;27.48;19.27;;;;;;;;;;5012175;28;20164;-50
2024/01/03 05:44:30;;;;;;;27.02;18.83;;;;;;;;;;5012119;28;20037;-50
2024/01/03 05:46:57;;;;;;;31.08;21.08;;;;;;;;;;5012110;28;20580;-50
2024/01/03 05:49:23;;;;;;;31.55;21.15;;;;;;;;;;4994406;28;20026;-50
2024/01/03 05:51:49;;;;;;;32.42;21.58;;;;;;;;;;5012066;28;20048;-50
2024/01/03 05:54:16;;;;;;;30.77;20.75;;;;;;;;;;5012036;28;20032;-50
2024/01/03 05:56:42;;;;;;;28.40;19.60;;;;;;;;;;5012010;28;20038;-50
2024/01/03 05:59:08;;;;;;;31.02;20.15;;;;;;;;;;4994173;28;20397;-51
2024/01/03 06:01:34;;;;;;;33.75;20.38;;;;;;;;;;5011918;28;20516;-49
2024/01/03 06:04:00;;;;;;;30.15;20.45;;;;;;;;;;5011888;28;20025;-50
2024/01/03 06:06:26;;;;;;;33.22;20.85;;;;;;;;;;5011823;28;20069;-50
2024/01/03 06:08:53;;;;;;;28.60;20.20;;;;;;;;;;5011652;28;20018;-50
2024/01/03 06:11:19;;;;;;;28.33;20.08;;;;;;;;;;4994339;28;20022;-50
2024/01/03 06:13:45;;;;;;;29.30;20.23;;;;;;;;;;5012081;28;20030;-50
2024/01/03 06:16:11;;;;;;;30.38;19.00;;;;;;;;;;5011687;28;20030;-50
2024/01/03 06:18:37;;;;;;;33.08;20.08;;;;;;;;;;5011337;28;20026;-50
2024/01/03 06:21:04;;;;;;;31.27;21.30;;;;;;;;;;5011859;28;20040;-49
2024/01/03 06:23:30;;;;;;;32.47;21.27;;;;;;;;;;5011849;28;20481;-50
2024/01/03 06:25:56;;;;;;;31.20;21.02;;;;;;;;;;5011709;28;20046;-50
2024/01/03 06:28:23;;;;;;;30.20;22.08;;;;;;;;;;4993826;28;20022;-50
2024/01/03 06:30:49;;;;;;;33.50;20.30;;;;;;;;;;4977802;28;20057;-51
2024/01/03 06:33:15;;;;;;;33.42;19.83;;;;;;;;;;4994030;28;20029;-51
2024/01/03 06:35:41;;;;;;;32.08;21.27;;;;;;;;;;5011612;28;20485;-53
2024/01/03 06:38:08;;;;;;;31.08;20.42;;;;;;;;;;4995594;28;20054;-50
2024/01/03 06:40:34;;;;;;;32.13;20.50;;;;;;;;;;5031327;28;20025;-52
2024/01/03 06:43:00;;;;;;;31.05;20.70;;;;;;;;;;5031335;28;20034;-50
2024/01/03 06:45:26;;;;;;;32.90;21.55;;;;;;;;;;5033387;28;20033;-51
2024/01/03 06:47:52;;;;;;;36.72;22.58;;;;;;;;;;5034882;28;20472;-54
2024/01/03 06:50:18;;;;;;;31.65;21.70;;;;;;;;;;5034882;28;20021;-50
2024/01/03 06:52:45;;;;;;;31.00;21.25;;;;;;;;;;5034904;28;20105;-54
2024/01/03 06:55:11;;;;;;;38.33;23.27;;;;;;;;;;5035005;28;20036;-55
2024/01/03 06:57:37;;;;;;;32.17;20.73;;;;;;;;;;5034894;28;20035;-52
2024/01/03 07:00:04;;;;;;;36.13;21.37;;;;;;;;;;5034447;28;20125;-53
2024/01/03 07:02:30;;;;;;;42.28;22.33;;;;;;;;;;5034733;28;20030;-51
2024/01/03 07:04:56;;;;;;;30.08;21.77;;;;;;;;;;5034590;28;20029;-50
2024/01/03 07:07:22;;;;;;;35.55;21.33;;;;;;;;;;5017024;28;20026;-52
2024/01/03 07:09:48;;;;;;;35.55;23.20;;;;;;;;;;5034475;28;20021;-51
2024/01/03 07:12:14;;;;;;;31.20;20.38;;;;;;;;;;5016873;28;20025;-50
2024/01/03 07:14:40;;;;;;;37.35;21.67;;;;;;;;;;5016830;28;20033;-50
2024/01/03 07:17:07;;;;;;;36.97;21.67;;;;;;;;;;5034418;28;20025;-49
2024/01/03 07:19:33;;;;;;;43.38;25.92;;;;;;;;;;5016895;28;20041;-51
2024/01/03 07:21:59;;;;;;;39.50;23.57;;;;;;;;;;5034464;28;20025;-51
2024/01/03 07:24:25;;;;;;;36.45;22.48;;;;;;;;;;5016587;28;20056;-53
2024/01/03 07:26:52;;;;;;;34.97;22.88;;;;;;;;;;5034223;28;20021;-52
2024/01/03 07:29:18;;;;;;;30.17;21.52;;;;;;;;;;5033810;28;20538;-51
2024/01/03 07:31:44;;;;;;;37.13;23.27;;;;;;;;;;4998907;28;20018;-51
2024/01/03 07:34:11;;;;;;;38.92;23.63;;;;;;;;;;4996931;28;20026;-50
2024/01/03 07:36:37;;;;;;;37.45;22.38;;;;;;;;;;4996703;28;20373;-53
2024/01/03 07:39:03;;;;;;;38.33;23.42;;;;;;;;;;5020918;28;20506;-49
2024/01/03 07:41:31;;;;;;;50.03;22.58;;;;;;;;;;5033995;28;20029;-51
2024/01/03 07:43:58;;;;;;;35.70;21.50;;;;;;;;;;5033909;28;20104;-51
2024/01/03 07:46:24;;;;;;;42.95;23.05;;;;;;;;;;4999754;28;20408;-51
2024/01/03 07:48:50;;;;;;;46.40;31.90;;;;;;;;;;5033653;28;20025;-52
2024/01/03 07:51:19;;;;;;;55.88;41.95;;;;;;;;;;5033823;28;20132;-50
2024/01/03 07:53:46;;;;;;;40.58;27.08;;;;;;;;;;5016172;28;20021;-50
2024/01/03 07:56:12;;;;;;;45.40;27.90;;;;;;;;;;5033092;28;20036;-50
2024/01/03 07:58:38;;;;;;;43.85;26.67;;;;;;;;;;5015768;28;20413;-51
2024/01/03 08:01:04;;;;;;;41.65;27.35;;;;;;;;;;5022687;28;20033;-52
2024/01/03 08:03:30;;;;;;;40.40;25.07;;;;;;;;;;5013988;28;20044;-52
2024/01/03 08:05:57;;;;;;;42.97;29.25;;;;;;;;;;4979952;28;20412;-54
2024/01/03 08:08:23;;;;;;;45.22;27.70;;;;;;;;;;5013640;28;20441;-55
2024/01/03 08:10:49;;;;;;;45.90;27.10;;;;;;;;;;5013706;28;20026;-53
2024/01/03 08:13:16;;;;;;;37.50;25.15;;;;;;;;;;4996106;28;20068;-50
2024/01/03 08:15:42;;;;;;;36.90;24.70;;;;;;;;;;5013450;28;20026;-49
2024/01/03 08:18:09;;;;;;;37.37;25.20;;;;;;;;;;5013260;28;20460;-52
2024/01/03 08:20:35;;;;;;;43.63;27.55;;;;;;;;;;5013427;28;20324;-50
2024/01/03 08:23:01;;;;;;;53.22;27.02;;;;;;;;;;5013655;28;20034;-52
2024/01/03 08:25:27;;;;;;;40.28;28.63;;;;;;;;;;5013424;28;20029;-51
2024/01/03 08:27:53;;;;;;;52.10;26.80;;;;;;;;;;5013108;28;20025;-50
2024/01/03 08:30:19;;;;;;;41.03;26.15;;;;;;;;;;4995547;28;20476;-50
2024/01/03 08:32:46;;;;;;;40.10;24.42;;;;;;;;;;5013241;28;20034;-50
2024/01/03 08:35:12;;;;;;;55.85;26.67;;;;;;;;;;4995650;28;20022;-51
2024/01/03 08:37:38;;;;;;;43.17;26.88;;;;;;;;;;5013242;28;20034;-49
2024/01/03 08:40:05;;;;;;;42.08;28.02;;;;;;;;;;5012830;28;20169;-50
2024/01/03 08:42:32;;;;;;;42.05;28.33;;;;;;;;;;5013051;28;20172;-51
2024/01/03 08:44:58;;;;;;;45.23;28.57;;;;;;;;;;4995423;28;20148;-51
2024/01/03 08:47:24;;;;;;;38.20;27.85;;;;;;;;;;5013052;28;20033;-50
2024/01/03 08:49:51;;;;;;;43.78;26.95;;;;;;;;;;5012717;28;20104;-50
2024/01/03 08:52:17;;;;;;;40.03;26.42;;;;;;;;;;5012927;28;20026;-51
2024/01/03 08:54:43;;;;;;;38.70;26.13;;;;;;;;;;5012841;28;20029;-51
2024/01/03 08:57:09;;;;;;;39.57;28.67;;;;;;;;;;5012848;28;20088;-50
2024/01/03 08:59:36;;;;;;;40.35;27.00;;;;;;;;;;5012534;28;20032;-50
2024/01/03 09:02:03;;;;;;;38.55;26.58;;;;;;;;;;5012639;28;20495;-49
2024/01/03 09:04:30;;;;;;;43.45;25.77;;;;;;;;;;5012723;28;20038;-51
2024/01/03 09:06:56;;;;;;;38.20;26.08;;;;;;;;;;5012567;28;20037;-50
2024/01/03 09:09:22;;;;;;;40.70;28.05;;;;;;;;;;5011617;28;20366;-50
2024/01/03 09:11:49;;;;;;;40.25;25.17;;;;;;;;;;5012565;28;20389;-47
2024/01/03 09:14:16;;;;;;;;;;;;;;;;;;4995386;28;20094;-48
2024/01/03 09:16:42;;;;;;;37.63;24.65;;;;;;;;;;5012510;28;19925;-48
2024/01/03 09:19:09;;;;;;;40.97;26.50;;;;;;;;;;4994765;28;20514;-48
2024/01/03 09:21:35;;;;;;;36.40;25.25;;;;;;;;;;5012479;28;20073;-48
2024/01/03 09:24:04;;;;;;;36.17;24.98;;;;;;;;;;4994792;28;20033;-48
2024/01/03 09:26:30;;;;;;;35.85;24.25;;;;;;;;;;5012255;28;20108;-48
2024/01/03 09:28:56;;;;;;;31.38;22.90;;;;;;;;;;5012039;28;20033;-48
2024/01/03 09:31:23;;;;;;;33.63;25.07;;;;;;;;;;4994742;28;20030;-48
2024/01/03 09:33:49;;;;;;;34.70;25.38;;;;;;;;;;4994822;28;20022;-48
2024/01/03 09:36:19;;;;;;;32.65;22.08;;;;;;;;;;5012179;28;20026;-48
2024/01/03 09:38:45;;;;;;;34.05;23.00;;;;;;;;;;4978124;28;20034;-48
2024/01/03 09:41:12;;;;;;;36.15;24.30;;;;;;;;;;5011459;28;20034;-48
2024/01/03 09:43:48;;;;;;;35.22;24.13;;;;;;;;;;4994579;28;20033;-48
2024/01/03 09:46:15;;;;;;;34.03;23.88;;;;;;;;;;5011999;28;20121;-50
2024/01/03 09:48:41;;;;;;;35.00;23.57;;;;;;;;;;4978053;28;20084;-49
2024/01/03 09:51:08;;;;;;;33.65;21.13;;;;;;;;;;5012057;28;20030;-49
2024/01/03 09:53:35;;;;;;;35.95;22.25;;;;;;;;;;4994411;28;20026;-49
2024/01/03 09:56:01;;;;;;;32.55;22.30;;;;;;;;;;5011952;28;20026;-48
2024/01/03 09:58:28;;;;;;;34.05;22.55;;;;;;;;;;5011770;28;20461;-48
2024/01/03 10:00:54;;;;;;;37.15;23.17;;;;;;;;;;5011978;28;20056;-48
2024/01/03 10:03:20;;;;;;;33.37;22.70;;;;;;;;;;5011922;28;20041;-47
2024/01/03 10:05:49;;;;;;;30.35;21.50;;;;;;;;;;5011802;28;20084;-48
2024/01/03 10:08:16;;;;;;;33.97;22.13;;;;;;;;;;5011615;28;20072;-50
2024/01/03 10:10:45;;;;;;;32.17;24.02;;;;;;;;;;5011752;28;20050;-48
2024/01/03 10:13:23;;;;;;;33.83;23.00;;;;;;;;;;4994159;28;20496;-48
2024/01/03 10:15:49;;;;;;;32.15;22.27;;;;;;;;;;5011724;28;20104;-49
2024/01/03 10:18:17;;;;;;;32.83;22.92;;;;;;;;;;4993991;28;20030;-48
2024/01/03 10:20:43;;;;;;;;;;;;;;;;;;4997398;28;20038;-48
2024/01/03 10:23:10;;;;;;;32.10;22.55;;;;;;;;;;5015683;28;20421;-48
2024/01/03 10:25:40;;;;;;;28.58;19.67;;;;;;;;;;5015592;28;20034;-47
2024/01/03 10:28:07;;;;;;;26.33;19.48;;;;;;;;;;5015366;28;20109;-48
2024/01/03 10:30:34;;;;;;;33.13;21.75;;;;;;;;;;4981567;28;20554;-47
2024/01/03 10:33:05;;;;;;;31.80;24.60;;;;;;;;;;4997966;28;20112;-49
2024/01/03 10:35:35;;;;;;;29.05;23.15;;;;;;;;;;4997820;28;20026;-49
2024/01/03 10:38:02;;;;;;;33.33;23.95;;;;;;;;;;4997557;28;20108;-48
2024/01/03 10:40:29;;;;;;;33.88;21.23;;;;;;;;;;4997582;28;20121;-49
2024/01/03 10:42:55;;;;;;;;;;;;;;;;;;4997980;28;20030;-49
2024/01/03 10:45:22;;;;;;;27.55;21.10;;;;;;;;;;5015043;28;19921;-48
2024/01/03 10:47:48;;;;;;;30.02;21.92;;;;;;;;;;4997451;28;20042;-48
2024/01/03 10:50:15;;;;;;;28.20;19.83;;;;;;;;;;4990406;28;20415;-48
2024/01/03 10:52:42;;;;;;;25.60;18.50;;;;;;;;;;5010571;28;20029;-47
2024/01/03 10:55:08;;;;;;;;;;;;;;;;;;5004622;28;20348;-50
2024/01/03 10:57:40;;;;;;;27.38;19.38;;;;;;;;;;4996264;28;20291;-48
2024/01/03 11:00:07;;;;;;;31.10;20.25;;;;;;;;;;4994562;28;20030;-48
2024/01/03 11:02:38;;;;;;;28.08;20.02;;;;;;;;;;4996257;28;20026;-49
2024/01/03 11:05:09;;;;;;;28.17;19.10;;;;;;;;;;5012164;28;20033;-49
2024/01/03 11:07:42;;;;;;;28.33;20.52;;;;;;;;;;4995987;28;20018;-50
2024/01/03 11:10:09;;;;;;;34.15;20.65;;;;;;;;;;5012652;28;20022;-53
2024/01/03 11:12:35;;;;;;;30.47;22.00;;;;;;;;;;5012187;28;20034;-49
2024/01/03 11:15:20;;;;;;;27.95;21.38;;;;;;;;;;5013303;28;20500;-50
2024/01/03 11:17:46;;;;;;;33.47;20.38;;;;;;;;;;5013121;28;20025;-49
2024/01/03 11:20:12;;;;;;;30.95;20.55;;;;;;;;;;4995237;28;20030;-50
2024/01/03 11:22:57;;;;;;;26.13;19.37;;;;;;;;;;4995250;28;20037;-48
2024/01/03 11:25:42;;;;;;;26.00;18.70;;;;;;;;;;5013229;28;20031;-50
2024/01/03 11:28:27;;;;;;;23.58;17.02;;;;;;;;;;5012700;28;20129;-47
2024/01/03 11:30:53;;;;;;;25.73;17.45;;;;;;;;;;5012292;28;20416;-50
2024/01/03 11:33:28;;;;;;;22.73;18.30;;;;;;;;;;4995643;28;20161;-47
2024/01/03 11:35:55;;;;;;;25.98;17.17;;;;;;;;;;5013312;28;20025;-48
2024/01/03 11:38:40;;;;;;;24.27;17.73;;;;;;;;;;5012536;28;20389;-49
2024/01/03 11:41:08;;;;;;;32.90;18.55;;;;;;;;;;5013078;28;20038;-46
2024/01/03 11:43:34;;;;;;;26.50;18.00;;;;;;;;;;4995443;28;20049;-46
2024/01/03 11:46:13;;;;;;;26.08;17.55;;;;;;;;;;5012709;28;20049;-47
2024/01/03 11:48:42;;;;;;;24.05;16.90;;;;;;;;;;5012993;28;20032;-48
2024/01/03 11:51:24;;;;;;;21.90;16.98;;;;;;;;;;4996570;28;20026;-46
2024/01/03 11:53:51;;;;;;;24.27;17.25;;;;;;;;;;4995183;28;20528;-50
2024/01/03 11:56:27;;;;;;;27.15;17.23;;;;;;;;;;5011670;28;20030;-48
2024/01/03 11:58:57;;;;;;;21.58;15.82;;;;;;;;;;5004220;28;20113;-47
2024/01/03 12:01:24;;;;;;;24.50;17.02;;;;;;;;;;5009701;28;20514;-48
2024/01/03 12:03:51;;;;;;;21.60;16.43;;;;;;;;;;4970003;28;20037;-47
2024/01/03 12:06:21;;;;;;;24.65;17.40;;;;;;;;;;5006559;28;20339;-47
2024/01/03 12:08:47;;;;;;;21.70;16.75;;;;;;;;;;5006063;28;20053;-49
2024/01/03 12:11:14;;;;;;;25.97;16.80;;;;;;;;;;4996003;28;20104;-47
2024/01/03 12:13:40;;;;;;;25.38;17.08;;;;;;;;;;5003423;28;20109;-48
2024/01/03 12:16:07;;;;;;;27.00;18.97;;;;;;;;;;5000269;28;20037;-49
2024/01/03 12:18:46;;;;;;;25.40;17.60;;;;;;;;;;4982590;28;20038;-47
2024/01/03 12:21:12;;;;;;;23.83;17.38;;;;;;;;;;4990327;28;20041;-48
2024/01/03 12:23:39;;;;;;;24.60;17.67;;;;;;;;;;4980851;28;20038;-47
2024/01/03 12:26:09;;;;;;;24.90;17.88;;;;;;;;;;4998900;28;20052;-51
2024/01/03 12:28:35;;;;;;;22.55;17.08;;;;;;;;;;4993749;28;20524;-49
2024/01/03 12:31:01;;;;;;;22.20;16.25;;;;;;;;;;4990906;28;20048;-48
2024/01/03 12:33:27;;;;;;;20.63;15.93;;;;;;;;;;4986378;28;20028;-50
2024/01/03 12:36:00;;;;;;;20.65;15.85;;;;;;;;;;4974551;28;20034;-49
2024/01/03 12:38:26;;;;;;;22.40;17.70;;;;;;;;;;5000818;28;20542;-49
2024/01/03 12:40:53;;;;;;;21.27;16.13;;;;;;;;;;5003529;28;20034;-49
2024/01/03 12:43:19;;;;;;;17.53;15.27;;;;;;;;;;4992570;28;20258;-48
2024/01/03 12:45:45;;;;;;;21.90;15.80;;;;;;;;;;4997891;28;20026;-48
2024/01/03 12:48:11;;;;;;;19.10;14.97;;;;;;;;;;4993446;28;20186;-48
2024/01/03 12:50:40;;;;;;;22.05;16.38;;;;;;;;;;5010411;28;20265;-47
2024/01/03 12:53:06;;;;;;;19.98;16.08;;;;;;;;;;4993228;28;20060;-49
2024/01/03 12:55:32;;;;;;;29.63;16.97;;;;;;;;;;4996392;28;20022;-49
2024/01/03 12:58:00;;;;;;;20.48;15.07;;;;;;;;;;4991353;28;20042;-48
2024/01/03 13:00:26;;;;;;;;;;;;;;;;;;4975628;28;21075;-47
2024/01/03 13:02:53;;;;;;;28.08;20.80;;;;;;;;;;4991455;28;19933;-48
2024/01/03 13:05:19;;;;;;;18.87;15.10;;;;;;;;;;4974837;28;20035;-47
2024/01/03 13:07:45;;;;;;;18.70;15.73;;;;;;;;;;4992314;28;20108;-49
2024/01/03 13:10:14;;;;;;;20.03;15.30;;;;;;;;;;4991165;28;20081;-49
2024/01/03 13:12:40;;;;;;;20.52;14.77;;;;;;;;;;4991294;28;20027;-49
2024/01/03 13:15:06;;;;;;;18.63;14.57;;;;;;;;;;5006135;28;20400;-48
2024/01/03 13:17:32;;;;;;;23.20;16.10;;;;;;;;;;4973913;28;20040;-48
2024/01/03 13:19:59;;;;;;;21.53;16.17;;;;;;;;;;5042771;23;20033;-49
2024/01/03 13:22:25;;;;;;;20.73;15.27;;;;;;;;;;5050326;28;20036;-48
2024/01/03 13:24:51;;;;;;;25.05;15.68;;;;;;;;;;5048904;28;20032;-50
2024/01/03 13:27:17;;;;;;;39.08;27.00;;;;;;;;;;5050674;28;20025;-48
2024/01/03 13:29:43;;;;;;;23.37;18.80;;;;;;;;;;5062275;28;20078;-47
2024/01/03 13:32:11;;;;;;;27.67;19.93;;;;;;;;;;5033423;28;20376;-51
2024/01/03 13:34:37;;;;;;;87.60;59.80;;;;;;;;;;5043873;28;20052;-49
2024/01/03 13:37:03;;;;;;;24.40;17.60;;;;;;;;;;5032354;28;20037;-48
2024/01/03 13:39:29;;;;;;;39.88;27.73;;;;;;;;;;5013702;28;20037;-49
2024/01/03 13:41:56;;;;;;;23.67;17.00;;;;;;;;;;5013678;28;20411;-50
2024/01/03 13:44:22;;;;;;;21.13;18.48;;;;;;;;;;5037403;28;20033;-47
2024/01/03 13:46:48;;;;;;;23.33;15.80;;;;;;;;;;5036172;28;20029;-48
2024/01/03 13:49:14;;;;;;;20.97;15.63;;;;;;;;;;5044905;28;20053;-47
2024/01/03 13:51:41;;;;;;;19.07;14.43;;;;;;;;;;5038367;28;20025;-49
2024/01/03 13:54:07;;;;;;;19.65;15.48;;;;;;;;;;5037387;28;20018;-47
2024/01/03 13:56:34;;;;;;;20.57;15.80;;;;;;;;;;5031329;28;20029;-49
2024/01/03 13:59:00;;;;;;;26.13;21.33;;;;;;;;;;5043096;28;20494;-48
2024/01/03 14:01:26;;;;;;;25.63;21.98;;;;;;;;;;5051077;28;20116;-48
2024/01/03 14:03:52;;;;;;;26.83;22.98;;;;;;;;;;5051271;28;20040;-48
2024/01/03 14:06:18;;;;;;;47.10;41.20;;;;;;;;;;5051359;28;20044;-47
2024/01/03 14:08:45;;;;;;;24.90;17.88;;;;;;;;;;5051379;28;20031;-47
2024/01/03 14:11:11;;;;;;;40.10;34.03;;;;;;;;;;5051340;28;20032;-48
2024/01/03 14:13:37;;;;;;;26.10;19.70;;;;;;;;;;5051313;28;20025;-48
2024/01/03 14:16:09;;;;;;;29.67;21.10;;;;;;;;;;5051432;28;20103;-48
2024/01/03 14:18:35;;;;;;;36.05;23.65;;;;;;;;;;5051228;28;20061;-46
2024/01/03 14:21:02;;;;;;;39.70;30.50;;;;;;;;;;5051098;28;20048;-50